5WI5 weather

Haymeadow Airport
Merrill, Wisconsin, United States

Public forecast

Using degrees Fahrenheit for public forecast. Weather courtesy of forecast.io.

METAR (pilot weather report)

Closest report is Merrill Municipal Airport, 10.4 nm (19.3 km) WSW. Retrieved 2019/08/25 20:35 UTC (35 minutes ago):

KRRL 252035Z AUTO 16012G16KT 10SM SCT042 BKN048 22/12 A3008 RMK AO2 T02210124 TSNO

TAF (pilot weather forecast)

Closest forecast is Rhinelander Oneida County Airport, 21.4 nm (39.7 km) N. Retrieved 2019/08/25 18:39 UTC (3 hours ago):

TAF KRHI 251736Z 2518/2618 16010G16KT P6SM BKN040 FM252300 15008KT P6SM SCT045 BKN200 FM260600 15005KT P6SM SCT045 BKN100 FM261500 15009G15KT P6SM BKN030 OVC070